sensor_id;sensor_type;location;lat;lon;timestamp;pressure;altitude;pressure_sealevel;temperature;humidity
62072;BME280;48031;48.542;13.232;2023-04-08T00:03:20;97197.34;;;19.14;29.95
62072;BME280;48031;48.542;13.232;2023-04-08T00:07:22;97198.72;;;19.25;29.66
62072;BME280;48031;48.542;13.232;2023-04-08T00:11:24;97196.09;;;18.97;30.61
62072;BME280;48031;48.542;13.232;2023-04-08T00:15:26;97200.97;;;19.00;30.16
62072;BME280;48031;48.542;13.232;2023-04-08T00:19:28;97203.78;;;19.09;30.52
62072;BME280;48031;48.542;13.232;2023-04-08T00:23:29;97202.59;;;19.24;30.01
62072;BME280;48031;48.542;13.232;2023-04-08T00:27:32;97198.81;;;18.75;31.43
62072;BME280;48031;48.542;13.232;2023-04-08T00:31:33;97200.28;;;18.59;31.49
62072;BME280;48031;48.542;13.232;2023-04-08T00:35:35;97201.47;;;18.39;32.48
62072;BME280;48031;48.542;13.232;2023-04-08T00:39:37;97203.69;;;18.51;31.93
62072;BME280;48031;48.542;13.232;2023-04-08T00:43:39;97206.53;;;18.73;32.16
62072;BME280;48031;48.542;13.232;2023-04-08T00:47:41;97201.47;;;18.53;31.83
62072;BME280;48031;48.542;13.232;2023-04-08T00:51:44;97207.19;;;18.43;31.55
62072;BME280;48031;48.542;13.232;2023-04-08T00:55:46;97198.66;;;18.44;31.30
62072;BME280;48031;48.542;13.232;2023-04-08T00:59:48;97209.53;;;18.08;31.56
62072;BME280;48031;48.542;13.232;2023-04-08T01:08:17;97203.03;;;18.18;33.08
62072;BME280;48031;48.542;13.232;2023-04-08T01:12:24;97201.56;;;18.61;32.61
62072;BME280;48031;48.542;13.232;2023-04-08T01:16:30;97201.19;;;18.54;31.70
62072;BME280;48031;48.542;13.232;2023-04-08T01:20:32;97204.34;;;18.20;31.97
62072;BME280;48031;48.542;13.232;2023-04-08T01:24:38;97203.03;;;18.32;31.34
62072;BME280;48031;48.542;13.232;2023-04-08T01:28:41;97207.19;;;17.88;31.98
62072;BME280;48031;48.542;13.232;2023-04-08T01:32:45;97207.22;;;18.15;31.64
62072;BME280;48031;48.542;13.232;2023-04-08T01:36:49;97212.09;;;18.05;32.20
62072;BME280;48031;48.542;13.232;2023-04-08T01:40:52;97204.13;;;18.31;32.51
62072;BME280;48031;48.542;13.232;2023-04-08T01:44:58;97207.41;;;18.33;32.44
62072;BME280;48031;48.542;13.232;2023-04-08T01:49:00;97201.72;;;17.88;32.62
62072;BME280;48031;48.542;13.232;2023-04-08T01:53:03;97201.50;;;18.12;33.10
62072;BME280;48031;48.542;13.232;2023-04-08T01:57:09;97207.41;;;18.19;32.47
62072;BME280;48031;48.542;13.232;2023-04-08T02:01:16;97205.44;;;18.06;32.77
62072;BME280;48031;48.542;13.232;2023-04-08T02:05:19;97195.06;;;17.75;32.63
62072;BME280;48031;48.542;13.232;2023-04-08T02:09:20;97203.72;;;17.50;33.11
62072;BME280;48031;48.542;13.232;2023-04-08T02:13:22;97209.66;;;17.25;33.61
62072;BME280;48031;48.542;13.232;2023-04-08T02:18:02;97205.91;;;17.67;32.89
62072;BME280;48031;48.542;13.232;2023-04-08T02:22:16;97209.63;;;17.90;32.41
62072;BME280;48031;48.542;13.232;2023-04-08T02:26:21;97208.59;;;17.85;32.93
62072;BME280;48031;48.542;13.232;2023-04-08T02:30:24;97210.16;;;17.59;32.96
62072;BME280;48031;48.542;13.232;2023-04-08T02:34:29;97205.16;;;18.07;32.43
62072;BME280;48031;48.542;13.232;2023-04-08T02:38:31;97209.41;;;17.86;32.56
62072;BME280;48031;48.542;13.232;2023-04-08T02:42:33;97206.06;;;17.75;33.09
62072;BME280;48031;48.542;13.232;2023-04-08T02:46:34;97205.34;;;17.70;32.65
62072;BME280;48031;48.542;13.232;2023-04-08T02:50:37;97214.31;;;17.57;33.25
62072;BME280;48031;48.542;13.232;2023-04-08T02:54:39;97203.91;;;17.72;33.01
62072;BME280;48031;48.542;13.232;2023-04-08T02:58:42;97210.00;;;17.69;33.04
62072;BME280;48031;48.542;13.232;2023-04-08T03:02:44;97209.63;;;17.57;32.82
62072;BME280;48031;48.542;13.232;2023-04-08T03:06:46;97204.72;;;17.40;33.42
62072;BME280;48031;48.542;13.232;2023-04-08T03:10:48;97209.31;;;17.91;32.70
62072;BME280;48031;48.542;13.232;2023-04-08T03:14:50;97211.47;;;17.48;33.48
62072;BME280;48031;48.542;13.232;2023-04-08T03:18:51;97218.34;;;17.13;34.19
62072;BME280;48031;48.542;13.232;2023-04-08T03:22:54;97216.16;;;18.07;32.58
62072;BME280;48031;48.542;13.232;2023-04-08T03:26:56;97215.84;;;18.09;32.26
62072;BME280;48031;48.542;13.232;2023-04-08T03:30:59;97222.53;;;17.57;32.88
62072;BME280;48031;48.542;13.232;2023-04-08T03:35:04;97212.03;;;17.45;33.25
62072;BME280;48031;48.542;13.232;2023-04-08T03:39:07;97219.50;;;17.77;32.58
62072;BME280;48031;48.542;13.232;2023-04-08T03:43:09;97215.41;;;17.56;32.60
62072;BME280;48031;48.542;13.232;2023-04-08T03:47:12;97224.16;;;17.76;32.60
62072;BME280;48031;48.542;13.232;2023-04-08T03:51:14;97239.81;;;17.43;33.35
62072;BME280;48031;48.542;13.232;2023-04-08T03:55:17;97237.94;;;17.39;32.85
62072;BME280;48031;48.542;13.232;2023-04-08T03:59:19;97252.25;;;16.61;33.51
62072;BME280;48031;48.542;13.232;2023-04-08T04:03:21;97252.66;;;16.92;33.29
62072;BME280;48031;48.542;13.232;2023-04-08T04:07:23;97264.22;;;16.70;33.26
62072;BME280;48031;48.542;13.232;2023-04-08T04:11:26;97262.22;;;16.76;33.30
62072;BME280;48031;48.542;13.232;2023-04-08T04:15:28;97267.84;;;16.66;33.08
62072;BME280;48031;48.542;13.232;2023-04-08T04:19:30;97267.19;;;17.30;32.52
62072;BME280;48031;48.542;13.232;2023-04-08T04:23:32;97273.16;;;17.51;32.30
62072;BME280;48031;48.542;13.232;2023-04-08T04:27:34;97275.06;;;17.50;31.98
62072;BME280;48031;48.542;13.232;2023-04-08T04:31:37;97288.38;;;17.24;32.93
62072;BME280;48031;48.542;13.232;2023-04-08T04:35:39;97290.97;;;17.34;32.36
62072;BME280;48031;48.542;13.232;2023-04-08T04:39:42;97296.03;;;17.78;31.58
62072;BME280;48031;48.542;13.232;2023-04-08T04:43:44;97303.13;;;17.66;31.49
62072;BME280;48031;48.542;13.232;2023-04-08T04:47:46;97296.63;;;18.08;31.31
62072;BME280;48031;48.542;13.232;2023-04-08T04:51:48;97317.50;;;17.58;31.28
62072;BME280;48031;48.542;13.232;2023-04-08T04:55:50;97312.47;;;17.97;30.96
62072;BME280;48031;48.542;13.232;2023-04-08T04:59:53;97330.50;;;18.03;30.81
62072;BME280;48031;48.542;13.232;2023-04-08T05:03:55;97339.94;;;17.65;31.96
62072;BME280;48031;48.542;13.232;2023-04-08T05:07:56;97338.78;;;17.84;31.90
62072;BME280;48031;48.542;13.232;2023-04-08T05:11:58;97341.88;;;17.97;32.44
62072;BME280;48031;48.542;13.232;2023-04-08T05:16:00;97352.69;;;17.37;33.72
62072;BME280;48031;48.542;13.232;2023-04-08T05:20:02;97353.66;;;17.27;33.74
62072;BME280;48031;48.542;13.232;2023-04-08T05:24:04;97355.06;;;17.95;32.97
62072;BME280;48031;48.542;13.232;2023-04-08T05:28:06;97364.63;;;17.65;34.16
62072;BME280;48031;48.542;13.232;2023-04-08T05:32:08;97364.91;;;17.26;34.97
62072;BME280;48031;48.542;13.232;2023-04-08T05:36:10;97374.06;;;16.97;36.42
62072;BME280;48031;48.542;13.232;2023-04-08T05:40:12;97374.88;;;17.17;36.27
62072;BME280;48031;48.542;13.232;2023-04-08T05:44:14;97380.13;;;17.37;36.65
62072;BME280;48031;48.542;13.232;2023-04-08T05:48:16;97385.34;;;16.43;40.42
62072;BME280;48031;48.542;13.232;2023-04-08T05:52:18;97389.16;;;16.95;39.05
62072;BME280;48031;48.542;13.232;2023-04-08T05:56:20;97390.69;;;16.30;42.45
62072;BME280;48031;48.542;13.232;2023-04-08T06:00:22;97392.03;;;16.32;42.94
62072;BME280;48031;48.542;13.232;2023-04-08T06:04:23;97410.00;;;15.80;43.46
62072;BME280;48031;48.542;13.232;2023-04-08T06:08:25;97403.16;;;15.78;43.54
62072;BME280;48031;48.542;13.232;2023-04-08T06:12:27;97404.19;;;16.21;42.87
62072;BME280;48031;48.542;13.232;2023-04-08T06:16:29;97405.47;;;16.00;43.95
62072;BME280;48031;48.542;13.232;2023-04-08T06:20:30;97410.16;;;15.06;45.29
62072;BME280;48031;48.542;13.232;2023-04-08T06:24:32;97412.56;;;15.18;46.29
62072;BME280;48031;48.542;13.232;2023-04-08T06:28:34;97423.31;;;14.94;47.03
62072;BME280;48031;48.542;13.232;2023-04-08T06:32:36;97425.19;;;15.09;48.09
62072;BME280;48031;48.542;13.232;2023-04-08T06:36:38;97426.63;;;14.86;48.08
62072;BME280;48031;48.542;13.232;2023-04-08T06:40:40;97431.09;;;14.51;47.29
62072;BME280;48031;48.542;13.232;2023-04-08T06:44:42;97443.13;;;14.30;48.27
62072;BME280;48031;48.542;13.232;2023-04-08T06:48:43;97431.94;;;14.32;46.65
62072;BME280;48031;48.542;13.232;2023-04-08T06:52:45;97438.91;;;14.98;46.94
62072;BME280;48031;48.542;13.232;2023-04-08T06:56:47;97440.66;;;14.44;47.02
62072;BME280;48031;48.542;13.232;2023-04-08T07:00:48;97442.56;;;14.59;47.32
62072;BME280;48031;48.542;13.232;2023-04-08T07:04:51;97452.97;;;13.86;48.06
62072;BME280;48031;48.542;13.232;2023-04-08T07:08:52;97458.50;;;13.13;49.59
62072;BME280;48031;48.542;13.232;2023-04-08T07:12:54;97447.50;;;14.41;47.45
62072;BME280;48031;48.542;13.232;2023-04-08T07:16:57;97460.31;;;14.00;47.97
62072;BME280;48031;48.542;13.232;2023-04-08T07:20:59;97450.22;;;14.36;47.39
62072;BME280;48031;48.542;13.232;2023-04-08T07:25:01;97449.34;;;14.76;46.84
62072;BME280;48031;48.542;13.232;2023-04-08T07:29:03;97444.56;;;15.12;46.85
62072;BME280;48031;48.542;13.232;2023-04-08T07:33:05;97451.72;;;15.03;46.81
62072;BME280;48031;48.542;13.232;2023-04-08T07:37:07;97446.84;;;14.85;47.00
62072;BME280;48031;48.542;13.232;2023-04-08T07:41:08;97454.78;;;14.91;47.57
62072;BME280;48031;48.542;13.232;2023-04-08T07:45:10;97461.38;;;14.75;46.53
62072;BME280;48031;48.542;13.232;2023-04-08T07:49:12;97461.38;;;14.80;46.73
62072;BME280;48031;48.542;13.232;2023-04-08T07:53:14;97463.19;;;15.00;45.08
62072;BME280;48031;48.542;13.232;2023-04-08T07:57:16;97465.84;;;15.25;46.45
62072;BME280;48031;48.542;13.232;2023-04-08T08:01:22;97461.59;;;15.58;47.30
62072;BME280;48031;48.542;13.232;2023-04-08T08:05:24;97469.22;;;15.02;46.10
62072;BME280;48031;48.542;13.232;2023-04-08T08:09:25;97474.97;;;14.95;46.02
62072;BME280;48031;48.542;13.232;2023-04-08T08:13:27;97480.03;;;15.27;45.04
62072;BME280;48031;48.542;13.232;2023-04-08T08:17:29;97475.84;;;15.50;45.57
62072;BME280;48031;48.542;13.232;2023-04-08T08:21:37;97471.69;;;16.70;44.50
62072;BME280;48031;48.542;13.232;2023-04-08T08:25:39;97470.66;;;15.98;44.96
62072;BME280;48031;48.542;13.232;2023-04-08T08:29:41;97477.88;;;16.17;43.55
62072;BME280;48031;48.542;13.232;2023-04-08T08:33:43;97472.84;;;15.96;44.52
62072;BME280;48031;48.542;13.232;2023-04-08T08:37:45;97474.88;;;16.82;43.33
62072;BME280;48031;48.542;13.232;2023-04-08T08:41:46;97470.69;;;16.55;43.07
62072;BME280;48031;48.542;13.232;2023-04-08T08:45:48;97483.81;;;16.30;43.67
62072;BME280;48031;48.542;13.232;2023-04-08T08:49:50;97481.13;;;16.25;42.93
62072;BME280;48031;48.542;13.232;2023-04-08T08:53:52;97483.75;;;16.01;43.27
62072;BME280;48031;48.542;13.232;2023-04-08T08:57:54;97482.72;;;16.31;42.67
62072;BME280;48031;48.542;13.232;2023-04-08T09:01:57;97491.50;;;15.94;43.56
62072;BME280;48031;48.542;13.232;2023-04-08T09:06:00;97483.00;;;15.41;43.85
62072;BME280;48031;48.542;13.232;2023-04-08T09:10:02;97479.97;;;15.53;44.75
62072;BME280;48031;48.542;13.232;2023-04-08T09:14:05;97485.00;;;15.79;43.44
62072;BME280;48031;48.542;13.232;2023-04-08T09:18:20;97495.72;;;15.02;44.78
62072;BME280;48031;48.542;13.232;2023-04-08T09:22:23;97491.31;;;15.11;44.89
62072;BME280;48031;48.542;13.232;2023-04-08T09:26:25;97505.84;;;15.01;44.36
62072;BME280;48031;48.542;13.232;2023-04-08T09:30:27;97500.59;;;15.79;43.32
62072;BME280;48031;48.542;13.232;2023-04-08T09:34:29;97508.91;;;16.08;43.41
62072;BME280;48031;48.542;13.232;2023-04-08T09:38:34;97509.03;;;16.66;42.39
62072;BME280;48031;48.542;13.232;2023-04-08T09:42:39;97516.31;;;16.41;42.25
62072;BME280;48031;48.542;13.232;2023-04-08T09:50:54;97516.75;;;17.11;41.49
62072;BME280;48031;48.542;13.232;2023-04-08T09:55:04;97519.91;;;16.03;41.23
62072;BME280;48031;48.542;13.232;2023-04-08T09:59:13;97535.66;;;16.21;42.47
62072;BME280;48031;48.542;13.232;2023-04-08T10:03:45;97523.13;;;16.78;41.35
62072;BME280;48031;48.542;13.232;2023-04-08T10:07:49;97528.56;;;16.88;41.21
62072;BME280;48031;48.542;13.232;2023-04-08T10:11:52;97522.94;;;17.45;40.33
62072;BME280;48031;48.542;13.232;2023-04-08T10:16:19;97529.03;;;17.42;39.99
62072;BME280;48031;48.542;13.232;2023-04-08T10:24:36;97518.00;;;17.48;40.11
62072;BME280;48031;48.542;13.232;2023-04-08T10:28:38;97522.38;;;17.25;40.50
62072;BME280;48031;48.542;13.232;2023-04-08T10:32:40;97519.56;;;17.77;39.59
62072;BME280;48031;48.542;13.232;2023-04-08T10:36:46;97540.25;;;17.46;40.39
62072;BME280;48031;48.542;13.232;2023-04-08T10:40:48;97527.94;;;17.86;38.91
62072;BME280;48031;48.542;13.232;2023-04-08T10:44:50;97530.25;;;18.35;38.43
62072;BME280;48031;48.542;13.232;2023-04-08T10:48:59;97527.66;;;18.44;38.41
62072;BME280;48031;48.542;13.232;2023-04-08T10:53:02;97534.28;;;18.05;38.94
62072;BME280;48031;48.542;13.232;2023-04-08T10:57:04;97526.72;;;18.16;38.42
62072;BME280;48031;48.542;13.232;2023-04-08T11:01:06;97529.06;;;18.60;38.26
62072;BME280;48031;48.542;13.232;2023-04-08T11:05:09;97529.41;;;18.35;37.97
62072;BME280;48031;48.542;13.232;2023-04-08T11:09:11;97525.00;;;19.31;36.96
62072;BME280;48031;48.542;13.232;2023-04-08T11:13:13;97534.50;;;18.27;38.62
62072;BME280;48031;48.542;13.232;2023-04-08T11:17:17;97542.13;;;18.12;38.77
62072;BME280;48031;48.542;13.232;2023-04-08T11:21:20;97540.41;;;18.35;38.45
62072;BME280;48031;48.542;13.232;2023-04-08T11:25:23;97544.50;;;18.56;37.73
62072;BME280;48031;48.542;13.232;2023-04-08T11:29:25;97547.19;;;19.07;36.45
62072;BME280;48031;48.542;13.232;2023-04-08T11:33:31;97550.78;;;18.75;37.19
62072;BME280;48031;48.542;13.232;2023-04-08T11:37:37;97549.34;;;19.10;36.20
62072;BME280;48031;48.542;13.232;2023-04-08T11:41:39;97548.03;;;18.75;36.40
62072;BME280;48031;48.542;13.232;2023-04-08T11:45:41;97552.19;;;18.73;36.71
62072;BME280;48031;48.542;13.232;2023-04-08T11:49:44;97553.88;;;18.87;36.53
62072;BME280;48031;48.542;13.232;2023-04-08T11:53:46;97548.88;;;18.57;36.89
62072;BME280;48031;48.542;13.232;2023-04-08T11:57:50;97550.66;;;18.99;35.84
62072;BME280;48031;48.542;13.232;2023-04-08T12:01:53;97546.88;;;18.25;37.89
62072;BME280;48031;48.542;13.232;2023-04-08T12:05:55;97543.81;;;18.64;37.82
62072;BME280;48031;48.542;13.232;2023-04-08T12:09:57;97550.34;;;18.68;37.22
62072;BME280;48031;48.542;13.232;2023-04-08T12:13:58;97558.16;;;18.23;36.94
62072;BME280;48031;48.542;13.232;2023-04-08T12:18:00;97552.69;;;18.61;37.28
62072;BME280;48031;48.542;13.232;2023-04-08T12:22:02;97561.09;;;18.32;37.43
62072;BME280;48031;48.542;13.232;2023-04-08T12:26:04;97564.56;;;18.56;37.02
62072;BME280;48031;48.542;13.232;2023-04-08T12:30:06;97570.34;;;18.74;37.74
62072;BME280;48031;48.542;13.232;2023-04-08T12:34:08;97569.09;;;18.66;36.75
62072;BME280;48031;48.542;13.232;2023-04-08T12:38:10;97571.25;;;18.69;37.18
62072;BME280;48031;48.542;13.232;2023-04-08T12:42:12;97566.28;;;18.85;37.11
62072;BME280;48031;48.542;13.232;2023-04-08T12:46:14;97574.06;;;18.96;36.82
62072;BME280;48031;48.542;13.232;2023-04-08T12:50:16;97568.03;;;18.62;37.26
62072;BME280;48031;48.542;13.232;2023-04-08T12:54:19;97570.41;;;18.68;37.24
62072;BME280;48031;48.542;13.232;2023-04-08T12:58:21;97569.50;;;18.73;37.36
62072;BME280;48031;48.542;13.232;2023-04-08T13:02:23;97561.78;;;18.75;36.39
62072;BME280;48031;48.542;13.232;2023-04-08T13:06:26;97562.69;;;18.71;36.54
62072;BME280;48031;48.542;13.232;2023-04-08T13:10:28;97562.31;;;18.77;37.99
62072;BME280;48031;48.542;13.232;2023-04-08T13:14:30;97559.22;;;18.97;37.40
62072;BME280;48031;48.542;13.232;2023-04-08T13:18:31;97568.88;;;18.95;36.62
62072;BME280;48031;48.542;13.232;2023-04-08T13:22:33;97572.75;;;18.94;36.62
62072;BME280;48031;48.542;13.232;2023-04-08T13:26:35;97579.94;;;18.76;37.25
62072;BME280;48031;48.542;13.232;2023-04-08T13:30:37;97576.28;;;18.62;37.42
62072;BME280;48031;48.542;13.232;2023-04-08T13:34:39;97578.41;;;18.84;37.10
62072;BME280;48031;48.542;13.232;2023-04-08T13:38:41;97580.00;;;19.03;36.59
62072;BME280;48031;48.542;13.232;2023-04-08T13:42:44;97580.91;;;18.99;36.34
62072;BME280;48031;48.542;13.232;2023-04-08T13:46:46;97583.59;;;19.18;36.43
62072;BME280;48031;48.542;13.232;2023-04-08T13:50:47;97584.06;;;18.92;36.63
62072;BME280;48031;48.542;13.232;2023-04-08T13:54:50;97580.81;;;19.04;36.74
62072;BME280;48031;48.542;13.232;2023-04-08T13:58:52;97585.13;;;19.10;37.03
62072;BME280;48031;48.542;13.232;2023-04-08T14:02:58;97579.84;;;19.27;37.08
62072;BME280;48031;48.542;13.232;2023-04-08T14:06:59;97586.69;;;19.30;36.81
62072;BME280;48031;48.542;13.232;2023-04-08T14:11:01;97588.25;;;19.03;36.98
62072;BME280;48031;48.542;13.232;2023-04-08T14:15:04;97591.53;;;19.05;36.60
62072;BME280;48031;48.542;13.232;2023-04-08T14:19:06;97598.91;;;18.91;37.15
62072;BME280;48031;48.542;13.232;2023-04-08T14:23:08;97599.53;;;18.51;37.85
62072;BME280;48031;48.542;13.232;2023-04-08T14:27:10;97603.56;;;18.77;36.90
62072;BME280;48031;48.542;13.232;2023-04-08T14:31:12;97605.44;;;18.95;38.04
62072;BME280;48031;48.542;13.232;2023-04-08T14:35:14;97608.09;;;18.87;36.90
62072;BME280;48031;48.542;13.232;2023-04-08T14:39:17;97610.84;;;18.49;38.52
62072;BME280;48031;48.542;13.232;2023-04-08T14:43:19;97617.50;;;18.99;37.31
62072;BME280;48031;48.542;13.232;2023-04-08T14:47:21;97616.94;;;19.30;37.26
62072;BME280;48031;48.542;13.232;2023-04-08T14:51:23;97612.69;;;18.54;38.80
62072;BME280;48031;48.542;13.232;2023-04-08T14:55:25;97618.88;;;18.64;38.74
62072;BME280;48031;48.542;13.232;2023-04-08T14:59:28;97623.16;;;18.52;39.29
62072;BME280;48031;48.542;13.232;2023-04-08T15:03:30;97623.94;;;18.76;38.27
62072;BME280;48031;48.542;13.232;2023-04-08T15:07:32;97628.06;;;18.36;40.28
62072;BME280;48031;48.542;13.232;2023-04-08T15:11:34;97635.22;;;18.56;39.47
62072;BME280;48031;48.542;13.232;2023-04-08T15:15:36;97633.50;;;18.41;39.13
62072;BME280;48031;48.542;13.232;2023-04-08T15:19:38;97642.63;;;18.37;40.20
62072;BME280;48031;48.542;13.232;2023-04-08T15:23:40;97642.28;;;18.81;38.72
62072;BME280;48031;48.542;13.232;2023-04-08T15:27:43;97651.63;;;18.80;39.02
62072;BME280;48031;48.542;13.232;2023-04-08T15:31:45;97641.44;;;18.99;38.39
62072;BME280;48031;48.542;13.232;2023-04-08T15:35:47;97648.72;;;18.90;38.88
62072;BME280;48031;48.542;13.232;2023-04-08T15:39:49;97655.03;;;18.34;39.95
62072;BME280;48031;48.542;13.232;2023-04-08T15:43:54;97650.00;;;18.97;38.15
62072;BME280;48031;48.542;13.232;2023-04-08T15:47:56;97655.59;;;19.06;37.87
62072;BME280;48031;48.542;13.232;2023-04-08T15:51:57;97653.72;;;18.88;38.17
62072;BME280;48031;48.542;13.232;2023-04-08T15:56:00;97656.78;;;18.67;37.89
62072;BME280;48031;48.542;13.232;2023-04-08T16:00:09;97661.00;;;18.97;37.78
62072;BME280;48031;48.542;13.232;2023-04-08T16:04:13;97661.31;;;18.77;37.74
62072;BME280;48031;48.542;13.232;2023-04-08T16:08:16;97671.50;;;18.58;38.27
62072;BME280;48031;48.542;13.232;2023-04-08T16:12:18;97676.97;;;18.95;37.96
62072;BME280;48031;48.542;13.232;2023-04-08T16:16:20;97681.69;;;18.76;37.97
62072;BME280;48031;48.542;13.232;2023-04-08T16:20:22;97684.34;;;18.81;37.78
62072;BME280;48031;48.542;13.232;2023-04-08T16:24:23;97684.66;;;18.80;37.23
62072;BME280;48031;48.542;13.232;2023-04-08T16:28:25;97688.41;;;19.02;37.01
62072;BME280;48031;48.542;13.232;2023-04-08T16:32:28;97693.13;;;18.83;37.39
62072;BME280;48031;48.542;13.232;2023-04-08T16:36:30;97700.03;;;18.99;37.02
62072;BME280;48031;48.542;13.232;2023-04-08T16:40:31;97701.50;;;18.73;38.52
62072;BME280;48031;48.542;13.232;2023-04-08T16:44:34;97706.81;;;18.88;37.74
62072;BME280;48031;48.542;13.232;2023-04-08T16:48:35;97708.88;;;19.15;37.59
62072;BME280;48031;48.542;13.232;2023-04-08T16:52:37;97706.66;;;18.98;37.38
62072;BME280;48031;48.542;13.232;2023-04-08T16:56:39;97709.47;;;18.75;37.65
62072;BME280;48031;48.542;13.232;2023-04-08T17:00:45;97713.34;;;19.11;36.63
62072;BME280;48031;48.542;13.232;2023-04-08T17:04:49;97722.19;;;19.08;37.11
62072;BME280;48031;48.542;13.232;2023-04-08T17:08:51;97721.44;;;18.65;37.69
62072;BME280;48031;48.542;13.232;2023-04-08T17:12:53;97724.13;;;18.70;38.25
62072;BME280;48031;48.542;13.232;2023-04-08T17:16:55;97728.03;;;18.21;38.53
62072;BME280;48031;48.542;13.232;2023-04-08T17:20:57;97734.19;;;18.56;38.63
62072;BME280;48031;48.542;13.232;2023-04-08T17:24:59;97739.56;;;17.95;39.75
62072;BME280;48031;48.542;13.232;2023-04-08T17:29:01;97743.63;;;18.50;38.62
62072;BME280;48031;48.542;13.232;2023-04-08T17:33:03;97746.75;;;18.62;37.67
62072;BME280;48031;48.542;13.232;2023-04-08T17:37:05;97761.78;;;18.46;38.54
62072;BME280;48031;48.542;13.232;2023-04-08T17:41:07;97763.44;;;18.23;38.91
62072;BME280;48031;48.542;13.232;2023-04-08T17:45:10;97774.66;;;18.55;39.23
62072;BME280;48031;48.542;13.232;2023-04-08T17:49:12;97778.63;;;18.87;38.07
62072;BME280;48031;48.542;13.232;2023-04-08T17:53:14;97785.44;;;18.71;38.36
62072;BME280;48031;48.542;13.232;2023-04-08T17:57:16;97778.16;;;18.61;38.64
62072;BME280;48031;48.542;13.232;2023-04-08T18:01:18;97777.41;;;18.55;38.90
62072;BME280;48031;48.542;13.232;2023-04-08T18:05:20;97791.81;;;18.66;37.63
62072;BME280;48031;48.542;13.232;2023-04-08T18:09:22;97794.66;;;18.80;37.12
62072;BME280;48031;48.542;13.232;2023-04-08T18:13:24;97806.75;;;18.60;37.69
62072;BME280;48031;48.542;13.232;2023-04-08T18:17:26;97804.22;;;18.63;38.08
62072;BME280;48031;48.542;13.232;2023-04-08T18:21:28;97809.06;;;18.48;38.20
62072;BME280;48031;48.542;13.232;2023-04-08T18:25:30;97818.47;;;18.42;38.36
62072;BME280;48031;48.542;13.232;2023-04-08T18:29:32;97819.53;;;18.22;38.84
62072;BME280;48031;48.542;13.232;2023-04-08T18:33:33;97830.91;;;18.10;38.49
62072;BME280;48031;48.542;13.232;2023-04-08T18:37:35;97828.50;;;18.04;38.98
62072;BME280;48031;48.542;13.232;2023-04-08T18:41:37;97834.03;;;17.99;39.21
62072;BME280;48031;48.542;13.232;2023-04-08T18:45:40;97837.75;;;18.13;39.69
62072;BME280;48031;48.542;13.232;2023-04-08T18:49:41;97846.31;;;18.06;39.07
62072;BME280;48031;48.542;13.232;2023-04-08T18:53:43;97852.13;;;18.05;39.39
62072;BME280;48031;48.542;13.232;2023-04-08T18:57:45;97856.84;;;17.65;40.21
62072;BME280;48031;48.542;13.232;2023-04-08T19:01:46;97867.28;;;17.58;40.60
62072;BME280;48031;48.542;13.232;2023-04-08T19:05:48;97868.69;;;17.61;40.56
62072;BME280;48031;48.542;13.232;2023-04-08T19:09:55;97869.78;;;18.22;39.67
62072;BME280;48031;48.542;13.232;2023-04-08T19:13:57;97869.63;;;17.80;40.15
62072;BME280;48031;48.542;13.232;2023-04-08T19:17:59;97877.91;;;17.75;40.03
62072;BME280;48031;48.542;13.232;2023-04-08T19:22:01;97878.72;;;17.75;40.27
62072;BME280;48031;48.542;13.232;2023-04-08T19:26:06;97879.28;;;18.06;39.95
62072;BME280;48031;48.542;13.232;2023-04-08T19:30:08;97884.41;;;17.84;40.03
62072;BME280;48031;48.542;13.232;2023-04-08T19:34:10;97880.78;;;17.94;39.46
62072;BME280;48031;48.542;13.232;2023-04-08T19:38:12;97884.25;;;18.04;39.09
62072;BME280;48031;48.542;13.232;2023-04-08T19:42:14;97886.50;;;17.97;39.31
62072;BME280;48031;48.542;13.232;2023-04-08T19:46:15;97892.91;;;17.88;40.16
62072;BME280;48031;48.542;13.232;2023-04-08T19:50:17;97896.53;;;17.78;39.55
62072;BME280;48031;48.542;13.232;2023-04-08T19:54:21;97889.75;;;18.04;39.33
62072;BME280;48031;48.542;13.232;2023-04-08T19:58:23;97890.38;;;17.96;39.42
62072;BME280;48031;48.542;13.232;2023-04-08T20:02:25;97897.53;;;17.92;39.92
62072;BME280;48031;48.542;13.232;2023-04-08T20:06:27;97896.53;;;17.83;40.32
62072;BME280;48031;48.542;13.232;2023-04-08T20:10:28;97903.69;;;17.79;40.23
62072;BME280;48031;48.542;13.232;2023-04-08T20:14:34;97902.34;;;18.10;39.89
62072;BME280;48031;48.542;13.232;2023-04-08T20:18:37;97903.94;;;17.82;40.00
62072;BME280;48031;48.542;13.232;2023-04-08T20:22:39;97903.53;;;17.99;39.71
62072;BME280;48031;48.542;13.232;2023-04-08T20:26:42;97902.25;;;17.86;39.83
62072;BME280;48031;48.542;13.232;2023-04-08T20:30:44;97906.38;;;17.84;39.87
62072;BME280;48031;48.542;13.232;2023-04-08T20:34:46;97903.72;;;17.74;40.12
62072;BME280;48031;48.542;13.232;2023-04-08T20:38:48;97909.59;;;17.03;42.29
62072;BME280;48031;48.542;13.232;2023-04-08T20:42:50;97903.84;;;17.93;39.89
62072;BME280;48031;48.542;13.232;2023-04-08T20:46:52;97901.03;;;18.03;39.27
62072;BME280;48031;48.542;13.232;2023-04-08T20:50:54;97910.59;;;17.76;39.21
62072;BME280;48031;48.542;13.232;2023-04-08T20:54:56;97909.59;;;17.96;39.35
62072;BME280;48031;48.542;13.232;2023-04-08T20:58:57;97917.31;;;17.89;39.70
62072;BME280;48031;48.542;13.232;2023-04-08T21:03:01;97913.59;;;17.75;39.85
62072;BME280;48031;48.542;13.232;2023-04-08T21:07:02;97916.72;;;17.58;40.08
62072;BME280;48031;48.542;13.232;2023-04-08T21:11:04;97924.81;;;17.29;40.89
62072;BME280;48031;48.542;13.232;2023-04-08T21:15:06;97915.75;;;16.75;42.86
62072;BME280;48031;48.542;13.232;2023-04-08T21:19:08;97917.00;;;17.02;41.47
62072;BME280;48031;48.542;13.232;2023-04-08T21:23:10;97917.66;;;17.38;40.94